sensor_id;sensor_type;location;lat;lon;timestamp;P1;durP1;ratioP1;P2;durP2;ratioP2
52033;SDS011;38045;52.988;6.536;2022-12-18T00:01:42;77.05;;;38.92;;
52033;SDS011;38045;52.988;6.536;2022-12-18T00:04:14;100.60;;;43.00;;
52033;SDS011;38045;52.988;6.536;2022-12-18T00:06:45;101.78;;;49.08;;
52033;SDS011;38045;52.988;6.536;2022-12-18T00:09:10;86.43;;;41.00;;
52033;SDS011;38045;52.988;6.536;2022-12-18T00:11:36;177.32;;;50.95;;
52033;SDS011;38045;52.988;6.536;2022-12-18T00:14:01;71.47;;;30.50;;
52033;SDS011;38045;52.988;6.536;2022-12-18T00:16:28;81.07;;;34.13;;
52033;SDS011;38045;52.988;6.536;2022-12-18T00:18:55;85.18;;;41.50;;
52033;SDS011;38045;52.988;6.536;2022-12-18T00:21:25;64.18;;;35.80;;
52033;SDS011;38045;52.988;6.536;2022-12-18T00:23:51;54.90;;;30.25;;
52033;SDS011;38045;52.988;6.536;2022-12-18T00:26:19;83.85;;;41.97;;
52033;SDS011;38045;52.988;6.536;2022-12-18T00:28:47;63.38;;;26.35;;
52033;SDS011;38045;52.988;6.536;2022-12-18T00:31:14;79.55;;;35.83;;
52033;SDS011;38045;52.988;6.536;2022-12-18T00:33:45;63.33;;;33.03;;
52033;SDS011;38045;52.988;6.536;2022-12-18T00:36:18;64.80;;;26.27;;
52033;SDS011;38045;52.988;6.536;2022-12-18T00:38:46;62.00;;;29.33;;
52033;SDS011;38045;52.988;6.536;2022-12-18T00:41:13;72.50;;;29.70;;
52033;SDS011;38045;52.988;6.536;2022-12-18T00:44:00;83.00;;;36.20;;
52033;SDS011;38045;52.988;6.536;2022-12-18T00:46:27;78.45;;;34.80;;
52033;SDS011;38045;52.988;6.536;2022-12-18T00:48:52;86.60;;;42.50;;
52033;SDS011;38045;52.988;6.536;2022-12-18T00:51:18;109.13;;;47.60;;
52033;SDS011;38045;52.988;6.536;2022-12-18T00:53:43;105.10;;;49.00;;
52033;SDS011;38045;52.988;6.536;2022-12-18T00:56:09;105.95;;;47.78;;
52033;SDS011;38045;52.988;6.536;2022-12-18T00:58:34;78.30;;;34.50;;
52033;SDS011;38045;52.988;6.536;2022-12-18T01:01:00;87.88;;;42.65;;
52033;SDS011;38045;52.988;6.536;2022-12-18T01:03:26;105.10;;;46.47;;
52033;SDS011;38045;52.988;6.536;2022-12-18T01:05:51;93.05;;;47.08;;
52033;SDS011;38045;52.988;6.536;2022-12-18T01:08:17;66.15;;;24.30;;
52033;SDS011;38045;52.988;6.536;2022-12-18T01:10:42;72.80;;;37.60;;
52033;SDS011;38045;52.988;6.536;2022-12-18T01:13:08;84.40;;;43.60;;
52033;SDS011;38045;52.988;6.536;2022-12-18T01:15:34;91.07;;;44.28;;
52033;SDS011;38045;52.988;6.536;2022-12-18T01:17:59;74.25;;;35.55;;
52033;SDS011;38045;52.988;6.536;2022-12-18T01:20:25;76.30;;;36.97;;
52033;SDS011;38045;52.988;6.536;2022-12-18T01:22:50;97.38;;;45.95;;
52033;SDS011;38045;52.988;6.536;2022-12-18T01:25:16;85.22;;;37.03;;
52033;SDS011;38045;52.988;6.536;2022-12-18T01:27:41;94.97;;;45.33;;
52033;SDS011;38045;52.988;6.536;2022-12-18T01:30:07;98.80;;;43.63;;
52033;SDS011;38045;52.988;6.536;2022-12-18T01:32:33;90.93;;;40.90;;
52033;SDS011;38045;52.988;6.536;2022-12-18T01:34:59;89.43;;;42.58;;
52033;SDS011;38045;52.988;6.536;2022-12-18T01:37:24;96.70;;;49.20;;
52033;SDS011;38045;52.988;6.536;2022-12-18T01:39:50;72.90;;;35.80;;
52033;SDS011;38045;52.988;6.536;2022-12-18T01:45:05;110.93;;;50.55;;
52033;SDS011;38045;52.988;6.536;2022-12-18T01:47:43;88.35;;;39.85;;
52033;SDS011;38045;52.988;6.536;2022-12-18T01:50:27;106.63;;;45.08;;
52033;SDS011;38045;52.988;6.536;2022-12-18T01:53:13;105.55;;;45.65;;
52033;SDS011;38045;52.988;6.536;2022-12-18T01:55:43;92.93;;;37.80;;
52033;SDS011;38045;52.988;6.536;2022-12-18T01:58:11;99.20;;;42.85;;
52033;SDS011;38045;52.988;6.536;2022-12-18T02:00:37;111.63;;;47.90;;
52033;SDS011;38045;52.988;6.536;2022-12-18T02:03:02;97.95;;;50.15;;
52033;SDS011;38045;52.988;6.536;2022-12-18T02:05:40;95.70;;;48.03;;
52033;SDS011;38045;52.988;6.536;2022-12-18T02:08:10;101.43;;;43.60;;
52033;SDS011;38045;52.988;6.536;2022-12-18T02:10:51;91.95;;;39.08;;
52033;SDS011;38045;52.988;6.536;2022-12-18T02:16:39;85.25;;;41.03;;
52033;SDS011;38045;52.988;6.536;2022-12-18T02:22:25;90.90;;;44.92;;
52033;SDS011;38045;52.988;6.536;2022-12-18T02:25:13;85.05;;;35.80;;
52033;SDS011;38045;52.988;6.536;2022-12-18T02:27:51;95.68;;;43.47;;
52033;SDS011;38045;52.988;6.536;2022-12-18T02:30:18;97.40;;;44.45;;
52033;SDS011;38045;52.988;6.536;2022-12-18T02:32:46;97.03;;;48.35;;
52033;SDS011;38045;52.988;6.536;2022-12-18T02:35:23;92.20;;;36.85;;
52033;SDS011;38045;52.988;6.536;2022-12-18T02:37:51;87.25;;;45.88;;
52033;SDS011;38045;52.988;6.536;2022-12-18T02:40:22;89.18;;;42.80;;
52033;SDS011;38045;52.988;6.536;2022-12-18T02:42:51;61.28;;;24.50;;
52033;SDS011;38045;52.988;6.536;2022-12-18T02:45:16;98.00;;;44.22;;
52033;SDS011;38045;52.988;6.536;2022-12-18T02:47:43;91.05;;;43.67;;
52033;SDS011;38045;52.988;6.536;2022-12-18T02:50:34;95.75;;;48.08;;
52033;SDS011;38045;52.988;6.536;2022-12-18T02:58:20;94.60;;;46.92;;
52033;SDS011;38045;52.988;6.536;2022-12-18T03:01:03;96.57;;;44.78;;
52033;SDS011;38045;52.988;6.536;2022-12-18T03:06:30;82.93;;;41.08;;
52033;SDS011;38045;52.988;6.536;2022-12-18T03:09:01;102.05;;;45.67;;
52033;SDS011;38045;52.988;6.536;2022-12-18T03:11:31;101.22;;;42.03;;
52033;SDS011;38045;52.988;6.536;2022-12-18T03:14:20;87.00;;;44.95;;
52033;SDS011;38045;52.988;6.536;2022-12-18T03:16:52;103.88;;;52.05;;
52033;SDS011;38045;52.988;6.536;2022-12-18T03:19:24;110.00;;;48.10;;
52033;SDS011;38045;52.988;6.536;2022-12-18T03:21:54;99.07;;;45.95;;
52033;SDS011;38045;52.988;6.536;2022-12-18T03:24:22;100.90;;;47.25;;
52033;SDS011;38045;52.988;6.536;2022-12-18T03:29:22;99.07;;;42.80;;
52033;SDS011;38045;52.988;6.536;2022-12-18T03:31:54;107.82;;;51.17;;
52033;SDS011;38045;52.988;6.536;2022-12-18T03:34:27;92.65;;;46.95;;
52033;SDS011;38045;52.988;6.536;2022-12-18T03:36:57;98.40;;;45.65;;
52033;SDS011;38045;52.988;6.536;2022-12-18T03:39:23;97.60;;;45.33;;
52033;SDS011;38045;52.988;6.536;2022-12-18T03:41:55;93.72;;;38.88;;
52033;SDS011;38045;52.988;6.536;2022-12-18T03:45:08;87.50;;;37.22;;
52033;SDS011;38045;52.988;6.536;2022-12-18T03:47:53;92.72;;;38.03;;
52033;SDS011;38045;52.988;6.536;2022-12-18T03:50:31;99.13;;;43.20;;
52033;SDS011;38045;52.988;6.536;2022-12-18T03:53:36;76.78;;;34.50;;
52033;SDS011;38045;52.988;6.536;2022-12-18T03:56:02;80.72;;;36.10;;
52033;SDS011;38045;52.988;6.536;2022-12-18T03:58:29;76.43;;;28.55;;
52033;SDS011;38045;52.988;6.536;2022-12-18T04:00:58;85.80;;;40.58;;
52033;SDS011;38045;52.988;6.536;2022-12-18T04:03:28;100.25;;;45.28;;
52033;SDS011;38045;52.988;6.536;2022-12-18T04:05:56;98.93;;;45.38;;
52033;SDS011;38045;52.988;6.536;2022-12-18T04:08:23;87.07;;;42.92;;
52033;SDS011;38045;52.988;6.536;2022-12-18T04:10:50;105.72;;;46.95;;
52033;SDS011;38045;52.988;6.536;2022-12-18T04:13:29;106.60;;;45.15;;
52033;SDS011;38045;52.988;6.536;2022-12-18T04:15:59;98.00;;;45.03;;
52033;SDS011;38045;52.988;6.536;2022-12-18T04:18:24;107.30;;;50.35;;
52033;SDS011;38045;52.988;6.536;2022-12-18T04:20:50;85.30;;;37.78;;
52033;SDS011;38045;52.988;6.536;2022-12-18T04:23:16;90.72;;;44.28;;
52033;SDS011;38045;52.988;6.536;2022-12-18T04:25:41;89.47;;;32.45;;
52033;SDS011;38045;52.988;6.536;2022-12-18T04:28:07;85.97;;;40.33;;
52033;SDS011;38045;52.988;6.536;2022-12-18T04:30:33;97.05;;;47.88;;
52033;SDS011;38045;52.988;6.536;2022-12-18T04:32:58;97.70;;;43.15;;
52033;SDS011;38045;52.988;6.536;2022-12-18T04:35:24;81.28;;;39.33;;
52033;SDS011;38045;52.988;6.536;2022-12-18T04:37:50;82.70;;;35.55;;
52033;SDS011;38045;52.988;6.536;2022-12-18T04:40:15;80.25;;;41.10;;
52033;SDS011;38045;52.988;6.536;2022-12-18T04:42:41;86.75;;;40.47;;
52033;SDS011;38045;52.988;6.536;2022-12-18T04:45:07;83.75;;;40.60;;
52033;SDS011;38045;52.988;6.536;2022-12-18T04:47:33;82.60;;;38.30;;
52033;SDS011;38045;52.988;6.536;2022-12-18T04:49:59;80.82;;;40.70;;
52033;SDS011;38045;52.988;6.536;2022-12-18T04:52:24;89.13;;;40.15;;
52033;SDS011;38045;52.988;6.536;2022-12-18T04:54:50;91.57;;;41.33;;
52033;SDS011;38045;52.988;6.536;2022-12-18T04:57:15;76.40;;;38.05;;
52033;SDS011;38045;52.988;6.536;2022-12-18T04:59:43;85.35;;;38.97;;
52033;SDS011;38045;52.988;6.536;2022-12-18T05:02:09;74.20;;;35.70;;
52033;SDS011;38045;52.988;6.536;2022-12-18T05:04:34;68.22;;;35.00;;
52033;SDS011;38045;52.988;6.536;2022-12-18T05:07:00;90.97;;;39.80;;
52033;SDS011;38045;52.988;6.536;2022-12-18T05:09:25;83.15;;;38.03;;
52033;SDS011;38045;52.988;6.536;2022-12-18T05:11:51;82.57;;;41.00;;
52033;SDS011;38045;52.988;6.536;2022-12-18T05:14:16;76.70;;;35.10;;
52033;SDS011;38045;52.988;6.536;2022-12-18T05:16:42;76.30;;;34.13;;
52033;SDS011;38045;52.988;6.536;2022-12-18T05:19:08;68.13;;;30.52;;
52033;SDS011;38045;52.988;6.536;2022-12-18T05:21:33;71.20;;;40.22;;
52033;SDS011;38045;52.988;6.536;2022-12-18T05:23:59;80.07;;;38.65;;
52033;SDS011;38045;52.988;6.536;2022-12-18T05:26:24;70.88;;;36.67;;
52033;SDS011;38045;52.988;6.536;2022-12-18T05:28:50;66.97;;;32.00;;
52033;SDS011;38045;52.988;6.536;2022-12-18T05:31:16;73.45;;;35.20;;
52033;SDS011;38045;52.988;6.536;2022-12-18T05:33:41;51.40;;;25.63;;
52033;SDS011;38045;52.988;6.536;2022-12-18T05:36:07;68.47;;;33.30;;
52033;SDS011;38045;52.988;6.536;2022-12-18T05:38:35;66.40;;;33.50;;
52033;SDS011;38045;52.988;6.536;2022-12-18T05:41:02;61.77;;;29.47;;
52033;SDS011;38045;52.988;6.536;2022-12-18T05:43:28;63.47;;;30.35;;
52033;SDS011;38045;52.988;6.536;2022-12-18T05:45:54;65.07;;;30.52;;
52033;SDS011;38045;52.988;6.536;2022-12-18T05:48:21;67.10;;;28.30;;
52033;SDS011;38045;52.988;6.536;2022-12-18T05:50:47;63.70;;;34.88;;
52033;SDS011;38045;52.988;6.536;2022-12-18T05:53:14;60.78;;;31.15;;
52033;SDS011;38045;52.988;6.536;2022-12-18T05:55:41;61.92;;;28.90;;
52033;SDS011;38045;52.988;6.536;2022-12-18T05:58:09;53.70;;;31.38;;
52033;SDS011;38045;52.988;6.536;2022-12-18T06:00:36;64.22;;;30.40;;
52033;SDS011;38045;52.988;6.536;2022-12-18T06:03:05;63.28;;;30.50;;
52033;SDS011;38045;52.988;6.536;2022-12-18T06:05:38;56.22;;;30.02;;
52033;SDS011;38045;52.988;6.536;2022-12-18T06:08:06;54.53;;;27.63;;
52033;SDS011;38045;52.988;6.536;2022-12-18T06:10:32;61.30;;;30.38;;
52033;SDS011;38045;52.988;6.536;2022-12-18T06:12:57;58.20;;;29.77;;
52033;SDS011;38045;52.988;6.536;2022-12-18T06:15:24;59.17;;;28.30;;
52033;SDS011;38045;52.988;6.536;2022-12-18T06:17:50;50.33;;;28.30;;
52033;SDS011;38045;52.988;6.536;2022-12-18T06:20:16;51.78;;;30.85;;
52033;SDS011;38045;52.988;6.536;2022-12-18T06:22:42;57.55;;;31.30;;
52033;SDS011;38045;52.988;6.536;2022-12-18T06:25:07;56.65;;;27.95;;
52033;SDS011;38045;52.988;6.536;2022-12-18T06:27:33;52.97;;;26.90;;
52033;SDS011;38045;52.988;6.536;2022-12-18T06:29:59;45.47;;;24.85;;
52033;SDS011;38045;52.988;6.536;2022-12-18T06:32:25;59.50;;;28.35;;
52033;SDS011;38045;52.988;6.536;2022-12-18T06:34:51;49.80;;;26.77;;
52033;SDS011;38045;52.988;6.536;2022-12-18T06:37:18;48.47;;;28.30;;
52033;SDS011;38045;52.988;6.536;2022-12-18T06:39:44;54.70;;;23.80;;
52033;SDS011;38045;52.988;6.536;2022-12-18T06:42:10;50.65;;;28.05;;
52033;SDS011;38045;52.988;6.536;2022-12-18T06:44:35;49.15;;;25.88;;
52033;SDS011;38045;52.988;6.536;2022-12-18T06:47:01;56.38;;;29.58;;
52033;SDS011;38045;52.988;6.536;2022-12-18T06:49:26;54.75;;;29.27;;
52033;SDS011;38045;52.988;6.536;2022-12-18T06:51:52;40.65;;;22.65;;
52033;SDS011;38045;52.988;6.536;2022-12-18T06:54:17;41.72;;;24.35;;
52033;SDS011;38045;52.988;6.536;2022-12-18T06:56:44;42.47;;;23.80;;
52033;SDS011;38045;52.988;6.536;2022-12-18T06:59:11;47.55;;;24.55;;
52033;SDS011;38045;52.988;6.536;2022-12-18T07:01:38;45.90;;;25.17;;
52033;SDS011;38045;52.988;6.536;2022-12-18T07:04:03;44.55;;;23.15;;
52033;SDS011;38045;52.988;6.536;2022-12-18T07:06:29;56.55;;;27.02;;
52033;SDS011;38045;52.988;6.536;2022-12-18T07:08:55;43.17;;;24.38;;
52033;SDS011;38045;52.988;6.536;2022-12-18T07:11:20;41.58;;;24.38;;
52033;SDS011;38045;52.988;6.536;2022-12-18T07:13:46;51.25;;;25.98;;
52033;SDS011;38045;52.988;6.536;2022-12-18T07:16:14;43.65;;;26.63;;
52033;SDS011;38045;52.988;6.536;2022-12-18T07:18:41;53.58;;;27.73;;
52033;SDS011;38045;52.988;6.536;2022-12-18T07:21:07;53.95;;;28.70;;
52033;SDS011;38045;52.988;6.536;2022-12-18T07:23:34;48.53;;;29.50;;
52033;SDS011;38045;52.988;6.536;2022-12-18T07:26:11;53.47;;;28.33;;
52033;SDS011;38045;52.988;6.536;2022-12-18T07:28:38;51.17;;;27.85;;
52033;SDS011;38045;52.988;6.536;2022-12-18T07:31:08;51.15;;;26.02;;
52033;SDS011;38045;52.988;6.536;2022-12-18T07:33:36;38.80;;;19.80;;
52033;SDS011;38045;52.988;6.536;2022-12-18T07:36:02;50.15;;;27.73;;
52033;SDS011;38045;52.988;6.536;2022-12-18T07:38:29;49.80;;;29.20;;
52033;SDS011;38045;52.988;6.536;2022-12-18T07:41:02;46.45;;;24.05;;
52033;SDS011;38045;52.988;6.536;2022-12-18T07:43:29;40.45;;;19.63;;
52033;SDS011;38045;52.988;6.536;2022-12-18T07:45:55;38.83;;;24.95;;
52033;SDS011;38045;52.988;6.536;2022-12-18T07:48:20;45.75;;;25.23;;
52033;SDS011;38045;52.988;6.536;2022-12-18T07:50:46;45.08;;;24.10;;
52033;SDS011;38045;52.988;6.536;2022-12-18T07:53:12;44.83;;;22.42;;
52033;SDS011;38045;52.988;6.536;2022-12-18T07:55:39;40.80;;;24.08;;
52033;SDS011;38045;52.988;6.536;2022-12-18T07:58:06;49.55;;;24.65;;
52033;SDS011;38045;52.988;6.536;2022-12-18T08:00:32;39.95;;;22.88;;
52033;SDS011;38045;52.988;6.536;2022-12-18T08:02:58;41.85;;;26.73;;
52033;SDS011;38045;52.988;6.536;2022-12-18T08:05:24;41.25;;;22.50;;
52033;SDS011;38045;52.988;6.536;2022-12-18T08:07:50;44.47;;;24.02;;
52033;SDS011;38045;52.988;6.536;2022-12-18T08:10:16;44.50;;;27.17;;
52033;SDS011;38045;52.988;6.536;2022-12-18T08:12:42;41.88;;;23.30;;
52033;SDS011;38045;52.988;6.536;2022-12-18T08:15:07;38.60;;;24.00;;
52033;SDS011;38045;52.988;6.536;2022-12-18T08:17:33;45.15;;;24.58;;
52033;SDS011;38045;52.988;6.536;2022-12-18T08:19:59;42.95;;;25.30;;
52033;SDS011;38045;52.988;6.536;2022-12-18T08:22:25;42.10;;;23.95;;
52033;SDS011;38045;52.988;6.536;2022-12-18T08:24:51;42.03;;;21.40;;
52033;SDS011;38045;52.988;6.536;2022-12-18T08:27:17;37.80;;;22.77;;
52033;SDS011;38045;52.988;6.536;2022-12-18T08:29:42;41.38;;;24.13;;
52033;SDS011;38045;52.988;6.536;2022-12-18T08:32:08;36.35;;;18.95;;
52033;SDS011;38045;52.988;6.536;2022-12-18T08:34:34;40.10;;;22.40;;
52033;SDS011;38045;52.988;6.536;2022-12-18T08:36:59;41.50;;;24.17;;
52033;SDS011;38045;52.988;6.536;2022-12-18T08:39:25;42.33;;;24.23;;
52033;SDS011;38045;52.988;6.536;2022-12-18T08:41:51;40.33;;;22.10;;
52033;SDS011;38045;52.988;6.536;2022-12-18T08:44:35;36.28;;;20.70;;
52033;SDS011;38045;52.988;6.536;2022-12-18T08:47:04;38.10;;;23.27;;
52033;SDS011;38045;52.988;6.536;2022-12-18T08:49:30;27.83;;;18.77;;
52033;SDS011;38045;52.988;6.536;2022-12-18T08:51:56;31.35;;;19.48;;
52033;SDS011;38045;52.988;6.536;2022-12-18T08:54:22;37.88;;;20.00;;
52033;SDS011;38045;52.988;6.536;2022-12-18T08:56:48;31.40;;;18.00;;
52033;SDS011;38045;52.988;6.536;2022-12-18T08:59:14;34.50;;;20.15;;
52033;SDS011;38045;52.988;6.536;2022-12-18T09:01:41;33.08;;;22.58;;
52033;SDS011;38045;52.988;6.536;2022-12-18T09:04:07;30.75;;;18.42;;
52033;SDS011;38045;52.988;6.536;2022-12-18T09:06:34;31.90;;;19.08;;
52033;SDS011;38045;52.988;6.536;2022-12-18T09:08:59;34.20;;;20.15;;
52033;SDS011;38045;52.988;6.536;2022-12-18T09:11:26;26.88;;;17.23;;
52033;SDS011;38045;52.988;6.536;2022-12-18T09:13:53;30.65;;;19.45;;
52033;SDS011;38045;52.988;6.536;2022-12-18T09:16:20;35.13;;;18.92;;
52033;SDS011;38045;52.988;6.536;2022-12-18T09:18:46;32.83;;;21.75;;
52033;SDS011;38045;52.988;6.536;2022-12-18T09:21:19;42.03;;;19.27;;
52033;SDS011;38045;52.988;6.536;2022-12-18T09:23:52;29.95;;;19.65;;
52033;SDS011;38045;52.988;6.536;2022-12-18T09:26:19;33.55;;;20.25;;
52033;SDS011;38045;52.988;6.536;2022-12-18T09:28:46;24.48;;;17.75;;
52033;SDS011;38045;52.988;6.536;2022-12-18T09:31:12;26.48;;;16.45;;
52033;SDS011;38045;52.988;6.536;2022-12-18T09:33:41;25.42;;;16.48;;
52033;SDS011;38045;52.988;6.536;2022-12-18T09:36:07;29.45;;;20.60;;
52033;SDS011;38045;52.988;6.536;2022-12-18T09:38:34;27.45;;;18.40;;
52033;SDS011;38045;52.988;6.536;2022-12-18T09:41:01;31.70;;;17.95;;
52033;SDS011;38045;52.988;6.536;2022-12-18T09:43:31;27.38;;;16.15;;
52033;SDS011;38045;52.988;6.536;2022-12-18T09:46:06;25.42;;;17.63;;
52033;SDS011;38045;52.988;6.536;2022-12-18T09:48:38;23.17;;;14.95;;
52033;SDS011;38045;52.988;6.536;2022-12-18T09:51:19;24.02;;;15.68;;
52033;SDS011;38045;52.988;6.536;2022-12-18T09:53:55;28.83;;;17.98;;
52033;SDS011;38045;52.988;6.536;2022-12-18T09:56:26;25.98;;;17.30;;
52033;SDS011;38045;52.988;6.536;2022-12-18T09:58:58;24.23;;;18.10;;
52033;SDS011;38045;52.988;6.536;2022-12-18T10:01:25;23.50;;;14.50;;
52033;SDS011;38045;52.988;6.536;2022-12-18T10:03:52;21.85;;;15.52;;
52033;SDS011;38045;52.988;6.536;2022-12-18T10:08:57;23.02;;;14.30;;
52033;SDS011;38045;52.988;6.536;2022-12-18T10:14:32;21.17;;;13.05;;
52033;SDS011;38045;52.988;6.536;2022-12-18T10:27:58;15.35;;;10.27;;
52033;SDS011;38045;52.988;6.536;2022-12-18T10:30:34;16.00;;;9.57;;
52033;SDS011;38045;52.988;6.536;2022-12-18T10:33:01;16.20;;;11.25;;
52033;SDS011;38045;52.988;6.536;2022-12-18T10:35:27;15.50;;;9.68;;
52033;SDS011;38045;52.988;6.536;2022-12-18T10:38:04;16.85;;;9.63;;
52033;SDS011;38045;52.988;6.536;2022-12-18T10:40:32;12.40;;;9.45;;
52033;SDS011;38045;52.988;6.536;2022-12-18T10:43:14;12.05;;;8.70;;
52033;SDS011;38045;52.988;6.536;2022-12-18T10:45:44;9.65;;;8.52;;
52033;SDS011;38045;52.988;6.536;2022-12-18T10:48:25;9.55;;;7.82;;
52033;SDS011;38045;52.988;6.536;2022-12-18T10:50:52;11.70;;;8.60;;
52033;SDS011;38045;52.988;6.536;2022-12-18T10:53:20;10.52;;;8.68;;
52033;SDS011;38045;52.988;6.536;2022-12-18T10:55:50;14.50;;;9.18;;
52033;SDS011;38045;52.988;6.536;2022-12-18T10:58:29;12.32;;;8.77;;
52033;SDS011;38045;52.988;6.536;2022-12-18T11:01:06;23.85;;;8.63;;
52033;SDS011;38045;52.988;6.536;2022-12-18T11:06:24;13.98;;;7.95;;
52033;SDS011;38045;52.988;6.536;2022-12-18T11:09:04;14.50;;;7.95;;
52033;SDS011;38045;52.988;6.536;2022-12-18T11:11:31;12.57;;;8.07;;
52033;SDS011;38045;52.988;6.536;2022-12-18T11:16:29;14.35;;;8.77;;
52033;SDS011;38045;52.988;6.536;2022-12-18T11:19:13;10.77;;;6.47;;
52033;SDS011;38045;52.988;6.536;2022-12-18T11:21:47;12.13;;;7.97;;
52033;SDS011;38045;52.988;6.536;2022-12-18T11:24:25;9.88;;;6.28;;
52033;SDS011;38045;52.988;6.536;2022-12-18T11:27:00;11.68;;;6.43;;
52033;SDS011;38045;52.988;6.536;2022-12-18T11:29:30;8.63;;;6.93;;
52033;SDS011;38045;52.988;6.536;2022-12-18T11:35:02;8.18;;;6.22;;
52033;SDS011;38045;52.988;6.536;2022-12-18T11:37:39;19.90;;;8.18;;
52033;SDS011;38045;52.988;6.536;2022-12-18T11:40:13;9.30;;;6.30;;
52033;SDS011;38045;52.988;6.536;2022-12-18T11:42:48;9.68;;;7.45;;
52033;SDS011;38045;52.988;6.536;2022-12-18T11:45:44;8.73;;;5.90;;
52033;SDS011;38045;52.988;6.536;2022-12-18T11:48:43;6.88;;;5.15;;
52033;SDS011;38045;52.988;6.536;2022-12-18T11:51:31;10.55;;;6.75;;
52033;SDS011;38045;52.988;6.536;2022-12-18T11:54:12;9.35;;;6.85;;
52033;SDS011;38045;52.988;6.536;2022-12-18T11:56:45;10.02;;;6.45;;
52033;SDS011;38045;52.988;6.536;2022-12-18T11:59:17;9.25;;;6.78;;
52033;SDS011;38045;52.988;6.536;2022-12-18T12:13:40;12.35;;;7.70;;
52033;SDS011;38045;52.988;6.536;2022-12-18T12:16:28;11.77;;;7.15;;
52033;SDS011;38045;52.988;6.536;2022-12-18T12:19:07;11.50;;;7.72;;
52033;SDS011;38045;52.988;6.536;2022-12-18T12:25:27;9.30;;;7.10;;
52033;SDS011;38045;52.988;6.536;2022-12-18T12:33:56;10.48;;;8.07;;
52033;SDS011;38045;52.988;6.536;2022-12-18T12:36:50;11.18;;;7.55;;
52033;SDS011;38045;52.988;6.536;2022-12-18T12:39:22;9.93;;;6.63;;
52033;SDS011;38045;52.988;6.536;2022-12-18T12:41:53;9.45;;;7.05;;
52033;SDS011;38045;52.988;6.536;2022-12-18T12:44:40;8.73;;;6.00;;
52033;SDS011;38045;52.988;6.536;2022-12-18T12:47:23;10.90;;;6.75;;
52033;SDS011;38045;52.988;6.536;2022-12-18T12:49:53;10.23;;;7.03;;
52033;SDS011;38045;52.988;6.536;2022-12-18T12:55:26;12.75;;;7.70;;
52033;SDS011;38045;52.988;6.536;2022-12-18T13:00:19;10.43;;;6.90;;
52033;SDS011;38045;52.988;6.536;2022-12-18T13:06:03;15.35;;;8.57;;
52033;SDS011;38045;52.988;6.536;2022-12-18T13:08:57;15.88;;;8.77;;
52033;SDS011;38045;52.988;6.536;2022-12-18T13:11:38;10.80;;;6.72;;
52033;SDS011;38045;52.988;6.536;2022-12-18T13:14:26;9.40;;;6.47;;
52033;SDS011;38045;52.988;6.536;2022-12-18T13:19:49;8.85;;;6.70;;
52033;SDS011;38045;52.988;6.536;2022-12-18T13:22:23;9.45;;;5.70;;
52033;SDS011;38045;52.988;6.536;2022-12-18T13:24:55;7.55;;;5.63;;
52033;SDS011;38045;52.988;6.536;2022-12-18T13:30:27;8.02;;;6.38;;
52033;SDS011;38045;52.988;6.536;2022-12-18T13:43:27;9.02;;;5.45;;
52033;SDS011;38045;52.988;6.536;2022-12-18T13:46:00;8.07;;;4.82;;
52033;SDS011;38045;52.988;6.536;2022-12-18T13:48:26;9.80;;;6.13;;
52033;SDS011;38045;52.988;6.536;2022-12-18T13:53:36;6.25;;;3.63;;
52033;SDS011;38045;52.988;6.536;2022-12-18T13:56:09;10.23;;;7.72;;
52033;SDS011;38045;52.988;6.536;2022-12-18T13:58:46;9.38;;;7.47;;
52033;SDS011;38045;52.988;6.536;2022-12-18T14:01:27;9.90;;;6.38;;
52033;SDS011;38045;52.988;6.536;2022-12-18T14:04:08;8.45;;;7.13;;
52033;SDS011;38045;52.988;6.536;2022-12-18T14:06:35;11.60;;;7.70;;
52033;SDS011;38045;52.988;6.536;2022-12-18T14:09:01;8.52;;;7.03;;
52033;SDS011;38045;52.988;6.536;2022-12-18T14:11:27;9.05;;;6.28;;
52033;SDS011;38045;52.988;6.536;2022-12-18T14:13:54;8.50;;;6.40;;
52033;SDS011;38045;52.988;6.536;2022-12-18T14:16:19;9.07;;;5.82;;
52033;SDS011;38045;52.988;6.536;2022-12-18T14:18:56;9.35;;;7.47;;
52033;SDS011;38045;52.988;6.536;2022-12-18T14:21:24;9.27;;;6.68;;
52033;SDS011;38045;52.988;6.536;2022-12-18T14:26:49;9.13;;;6.22;;
52033;SDS011;38045;52.988;6.536;2022-12-18T14:31:44;9.85;;;5.70;;
52033;SDS011;38045;52.988;6.536;2022-12-18T14:34:16;10.65;;;7.07;;
52033;SDS011;38045;52.988;6.536;2022-12-18T14:36:44;10.82;;;6.82;;
52033;SDS011;38045;52.988;6.536;2022-12-18T14:39:17;7.68;;;5.93;;
52033;SDS011;38045;52.988;6.536;2022-12-18T14:41:43;10.95;;;7.32;;
52033;SDS011;38045;52.988;6.536;2022-12-18T14:44:11;11.93;;;6.63;;
52033;SDS011;38045;52.988;6.536;2022-12-18T14:46:38;8.90;;;6.07;;
52033;SDS011;38045;52.988;6.536;2022-12-18T14:51:55;11.27;;;6.32;;
52033;SDS011;38045;52.988;6.536;2022-12-18T14:54:40;9.43;;;6.72;;
52033;SDS011;38045;52.988;6.536;2022-12-18T14:57:21;9.68;;;7.38;;
52033;SDS011;38045;52.988;6.536;2022-12-18T14:59:49;10.68;;;7.53;;
52033;SDS011;38045;52.988;6.536;2022-12-18T15:02:25;15.40;;;9.63;;
52033;SDS011;38045;52.988;6.536;2022-12-18T15:05:03;16.27;;;9.65;;
52033;SDS011;38045;52.988;6.536;2022-12-18T15:07:41;10.73;;;8.90;;
52033;SDS011;38045;52.988;6.536;2022-12-18T15:12:43;11.85;;;7.72;;
52033;SDS011;38045;52.988;6.536;2022-12-18T15:23:18;12.05;;;6.95;;
52033;SDS011;38045;52.988;6.536;2022-12-18T15:25:47;11.52;;;6.57;;
52033;SDS011;38045;52.988;6.536;2022-12-18T15:33:38;12.82;;;8.18;;
52033;SDS011;38045;52.988;6.536;2022-12-18T15:36:08;12.63;;;8.23;;
52033;SDS011;38045;52.988;6.536;2022-12-18T15:38:36;12.52;;;9.23;;
52033;SDS011;38045;52.988;6.536;2022-12-18T15:41:01;14.90;;;9.45;;
52033;SDS011;38045;52.988;6.536;2022-12-18T15:43:28;12.20;;;9.40;;
52033;SDS011;38045;52.988;6.536;2022-12-18T15:46:00;20.77;;;11.60;;
52033;SDS011;38045;52.988;6.536;2022-12-18T15:48:26;14.98;;;9.65;;
52033;SDS011;38045;52.988;6.536;2022-12-18T15:50:52;19.67;;;12.07;;
52033;SDS011;38045;52.988;6.536;2022-12-18T15:53:21;16.15;;;10.07;;
52033;SDS011;38045;52.988;6.536;2022-12-18T15:55:48;12.35;;;9.80;;
52033;SDS011;38045;52.988;6.536;2022-12-18T15:58:32;18.35;;;10.07;;
52033;SDS011;38045;52.988;6.536;2022-12-18T16:00:58;14.27;;;8.55;;
52033;SDS011;38045;52.988;6.536;2022-12-18T16:03:25;15.55;;;10.13;;
52033;SDS011;38045;52.988;6.536;2022-12-18T16:05:51;13.57;;;10.48;;
52033;SDS011;38045;52.988;6.536;2022-12-18T16:08:16;11.43;;;8.88;;
52033;SDS011;38045;52.988;6.536;2022-12-18T16:10:42;13.60;;;8.82;;
52033;SDS011;38045;52.988;6.536;2022-12-18T16:13:11;16.85;;;11.02;;
52033;SDS011;38045;52.988;6.536;2022-12-18T16:15:40;14.18;;;9.85;;
52033;SDS011;38045;52.988;6.536;2022-12-18T16:18:05;14.82;;;9.40;;
52033;SDS011;38045;52.988;6.536;2022-12-18T16:20:31;13.13;;;9.23;;
52033;SDS011;38045;52.988;6.536;2022-12-18T16:22:56;15.57;;;11.90;;
52033;SDS011;38045;52.988;6.536;2022-12-18T16:25:23;11.75;;;8.93;;
52033;SDS011;38045;52.988;6.536;2022-12-18T16:27:50;14.27;;;9.23;;
52033;SDS011;38045;52.988;6.536;2022-12-18T16:30:18;12.32;;;10.30;;
52033;SDS011;38045;52.988;6.536;2022-12-18T16:35:12;15.18;;;10.30;;
52033;SDS011;38045;52.988;6.536;2022-12-18T16:37:39;15.27;;;10.43;;
52033;SDS011;38045;52.988;6.536;2022-12-18T16:40:06;14.50;;;10.88;;
52033;SDS011;38045;52.988;6.536;2022-12-18T16:42:34;11.05;;;8.00;;